Time;durP1;ratioP1;P1;durP2;ratioP2;P2;SDS_P1;SDS_P2;PMS_P1;PMS_P2;Temp;Humidity;BMP_temperature;BMP_pressure;BME280_temperature;BME280_humidity;BME280_pressure;Samples;Min_cycle;Max_cycle;Signal;HPM_P1;HPM_P2
2023/02/22 00:01:27;;;;;;;22.83;13.83;;;18.60;58.80;;;;;;6345532;22;20402;-81
2023/02/22 00:03:54;;;;;;;20.53;14.00;;;18.60;58.80;;;;;;6343697;22;20447;-80
2023/02/22 00:06:24;;;;;;;23.57;15.60;;;18.60;58.80;;;;;;6347110;22;20475;-79
2023/02/22 00:08:54;;;;;;;27.53;17.60;;;18.60;58.80;;;;;;6354474;22;20383;-81
2023/02/22 00:11:22;;;;;;;23.77;16.07;;;18.60;58.70;;;;;;6350867;22;20419;-82
2023/02/22 00:13:50;;;;;;;26.27;16.37;;;18.60;58.70;;;;;;6346465;22;20424;-81
2023/02/22 00:16:19;;;;;;;23.83;16.47;;;18.70;58.80;;;;;;6352152;22;20966;-82
2023/02/22 00:18:47;;;;;;;25.10;17.53;;;18.60;58.70;;;;;;6353101;22;20427;-83
2023/02/22 00:21:23;;;;;;;25.40;17.80;;;18.60;58.80;;;;;;6346664;22;20404;-80
2023/02/22 00:23:53;;;;;;;26.20;16.73;;;18.60;58.80;;;;;;6349834;22;20943;-82
2023/02/22 00:26:22;;;;;;;28.20;17.63;;;18.60;58.80;;;;;;6342078;22;21029;-82
2023/02/22 00:28:52;;;;;;;26.57;17.43;;;18.60;58.80;;;;;;6343207;22;20406;-82
2023/02/22 00:31:20;;;;;;;25.50;16.63;;;18.60;58.80;;;;;;6349938;22;20435;-81
2023/02/22 00:33:48;;;;;;;27.00;17.70;;;18.60;58.70;;;;;;6357007;22;20415;-82
2023/02/22 00:36:16;;;;;;;25.20;17.00;;;18.60;58.70;;;;;;6355991;22;20423;-82
2023/02/22 00:38:44;;;;;;;27.03;17.10;;;18.60;58.70;;;;;;6354489;22;20431;-81
2023/02/22 00:41:13;;;;;;;24.53;17.00;;;18.60;58.70;;;;;;6355257;22;20427;-82
2023/02/22 00:43:43;;;;;;;26.30;17.30;;;18.60;58.80;;;;;;6355982;22;20427;-81
2023/02/22 00:46:13;;;;;;;23.23;16.07;;;18.60;58.80;;;;;;6357823;22;20437;-82
2023/02/22 00:48:41;;;;;;;23.33;15.43;;;18.60;58.70;;;;;;6357162;22;20449;-82
2023/02/22 00:51:09;;;;;;;24.73;16.53;;;18.60;58.70;;;;;;6352751;22;20479;-80
2023/02/22 00:53:37;;;;;;;25.60;16.23;;;18.60;58.70;;;;;;6353214;22;20459;-80
2023/02/22 00:56:07;;;;;;;23.70;16.17;;;18.60;58.70;;;;;;6358776;22;20438;-82
2023/02/22 00:58:34;;;;;;;25.27;16.57;;;18.60;58.70;;;;;;6356323;22;20431;-80
2023/02/22 01:01:04;;;;;;;25.60;16.40;;;18.60;58.80;;;;;;6348568;22;20397;-81
2023/02/22 01:03:34;;;;;;;24.13;16.23;;;18.60;58.60;;;;;;6350560;22;20423;-81
2023/02/22 01:06:02;;;;;;;24.70;16.00;;;18.60;58.70;;;;;;6351662;22;20481;-78
2023/02/22 01:08:31;;;;;;;21.77;14.90;;;18.60;58.70;;;;;;6352117;22;20426;-80
2023/02/22 01:10:59;;;;;;;23.20;15.30;;;18.60;58.70;;;;;;6349912;22;20457;-80
2023/02/22 01:13:27;;;;;;;24.60;15.10;;;18.60;58.70;;;;;;6352480;22;20423;-81
2023/02/22 01:15:55;;;;;;;23.53;15.20;;;18.60;58.70;;;;;;6347843;22;20900;-80
2023/02/22 01:18:25;;;;;;;22.13;15.30;;;18.60;58.80;;;;;;6350013;22;20494;-80
2023/02/22 01:20:53;;;;;;;23.50;15.13;;;18.60;58.80;;;;;;6352413;22;20395;-80
2023/02/22 01:23:21;;;;;;;22.70;14.90;;;18.60;59.00;;;;;;6348172;22;20510;-79
2023/02/22 01:25:50;;;;;;;20.20;14.20;;;18.60;58.90;;;;;;6346607;22;20435;-80
2023/02/22 01:28:18;;;;;;;21.13;14.17;;;18.60;59.00;;;;;;6348833;22;20423;-81
2023/02/22 01:30:46;;;;;;;23.30;15.00;;;18.60;59.00;;;;;;6355900;22;20407;-81
2023/02/22 01:33:14;;;;;;;19.47;13.33;;;18.60;59.10;;;;;;6355409;22;20411;-80
2023/02/22 01:35:45;;;;;;;21.30;14.03;;;18.60;59.10;;;;;;6353387;22;20438;-80
2023/02/22 01:38:14;;;;;;;20.93;14.10;;;18.60;59.20;;;;;;6353746;22;20427;-81
2023/02/22 01:40:42;;;;;;;19.83;13.03;;;18.60;59.30;;;;;;6354629;22;20453;-83
2023/02/22 01:43:16;;;;;;;17.73;12.73;;;18.60;59.40;;;;;;6354348;22;20443;-82
2023/02/22 01:45:58;;;;;;;18.80;12.80;;;18.60;59.40;;;;;;6355644;22;20410;-81
2023/02/22 01:48:39;;;;;;;17.27;12.30;;;18.60;59.40;;;;;;6355116;22;20395;-82
2023/02/22 01:51:11;;;;;;;17.60;12.80;;;18.60;59.40;;;;;;6347685;22;20392;-80
2023/02/22 01:53:43;;;;;;;15.97;12.03;;;18.60;59.70;;;;;;6347341;22;20423;-80
2023/02/22 01:56:11;;;;;;;19.67;11.43;;;18.60;59.60;;;;;;6348508;22;20427;-80
2023/02/22 01:58:41;;;;;;;17.87;11.57;;;18.60;59.70;;;;;;6351252;22;20459;-79
2023/02/22 02:01:09;;;;;;;17.63;12.37;;;18.60;59.80;;;;;;6348111;22;20467;-81
2023/02/22 02:03:38;;;;;;;14.93;11.50;;;18.60;59.80;;;;;;6353995;22;20427;-81
2023/02/22 02:06:10;;;;;;;17.60;11.97;;;18.60;59.70;;;;;;6355984;22;20403;-80
2023/02/22 02:08:50;;;;;;;16.43;11.20;;;18.60;59.80;;;;;;6351120;22;20422;-80
2023/02/22 02:11:20;;;;;;;16.53;11.67;;;18.60;59.80;;;;;;6346019;22;20427;-79
2023/02/22 02:13:49;;;;;;;15.13;11.30;;;18.60;59.90;;;;;;6345084;22;20430;-80
2023/02/22 02:16:17;;;;;;;17.23;11.07;;;18.60;59.90;;;;;;6345294;22;20498;-79
2023/02/22 02:18:45;;;;;;;13.90;10.60;;;18.60;59.90;;;;;;6344066;22;20499;-80
2023/02/22 02:21:40;;;;;;;14.80;11.10;;;18.60;59.90;;;;;;6350474;22;20466;-80
2023/02/22 02:24:49;;;;;;;12.90;9.70;;;18.60;60.10;;;;;;6326275;22;20483;-80
2023/02/22 02:27:18;;;;;;;17.67;10.60;;;18.60;60.00;;;;;;6289043;22;20437;-81
2023/02/22 02:30:32;;;;;;;16.10;11.63;;;18.60;60.10;;;;;;6290420;22;20399;-80
2023/02/22 02:33:03;;;;;;;14.23;10.43;;;18.50;60.20;;;;;;6285933;22;20426;-80
2023/02/22 02:35:50;;;;;;;15.17;10.50;;;18.50;60.30;;;;;;6353623;22;20399;-81
2023/02/22 02:38:24;;;;;;;14.00;10.73;;;18.50;60.20;;;;;;6353298;22;20510;-81
2023/02/22 02:40:58;;;;;;;15.30;10.80;;;18.50;60.40;;;;;;6354756;22;20427;-81
2023/02/22 02:43:29;;;;;;;14.67;10.47;;;18.50;60.30;;;;;;6354968;22;20591;-81
2023/02/22 02:46:01;;;;;;;13.23;9.87;;;18.50;60.20;;;;;;6354710;22;20490;-81
2023/02/22 02:48:31;;;;;;;14.07;10.50;;;18.50;60.40;;;;;;6353019;22;20421;-81
2023/02/22 02:51:01;;;;;;;14.87;10.50;;;18.50;60.30;;;;;;6355192;22;20399;-81
2023/02/22 02:53:32;;;;;;;14.40;10.57;;;18.50;60.30;;;;;;6354983;22;20761;-81
2023/02/22 02:56:01;;;;;;;14.43;10.23;;;18.50;60.30;;;;;;6355049;22;20428;-80
2023/02/22 02:58:29;;;;;;;16.30;10.70;;;18.50;60.20;;;;;;6356311;22;20522;-81
2023/02/22 03:00:58;;;;;;;14.17;10.53;;;18.50;60.40;;;;;;6356342;22;20491;-81
2023/02/22 03:03:46;;;;;;;15.43;10.70;;;18.50;60.40;;;;;;6354922;22;20491;-80
2023/02/22 03:06:29;;;;;;;15.30;10.17;;;18.50;60.40;;;;;;6354027;22;20399;-79
2023/02/22 03:08:59;;;;;;;12.77;9.23;;;18.50;60.40;;;;;;6347609;22;20931;-80
2023/02/22 03:11:28;;;;;;;12.53;9.30;;;18.50;60.70;;;;;;6347373;22;20459;-80
2023/02/22 03:14:01;;;;;;;13.87;9.53;;;18.50;60.60;;;;;;6347197;22;20423;-79
2023/02/22 03:16:32;;;;;;;15.00;10.13;;;18.50;60.60;;;;;;6349288;22;20395;-80
2023/02/22 03:19:06;;;;;;;14.40;10.10;;;18.50;60.60;;;;;;6350216;22;20484;-81
2023/02/22 03:21:36;;;;;;;14.60;10.00;;;18.50;60.70;;;;;;6355110;22;20421;-81
2023/02/22 03:24:07;;;;;;;13.40;9.33;;;18.50;60.70;;;;;;6355456;22;20434;-81
2023/02/22 03:26:39;;;;;;;12.83;9.63;;;18.50;60.90;;;;;;6357788;22;20435;-81
2023/02/22 03:29:08;;;;;;;14.50;10.00;;;18.50;60.90;;;;;;6356150;22;20463;-80
2023/02/22 03:31:38;;;;;;;14.07;9.83;;;18.50;60.60;;;;;;6355281;22;20434;-83
2023/02/22 03:34:09;;;;;;;14.00;9.70;;;18.50;60.80;;;;;;6356520;22;20488;-81
2023/02/22 03:36:39;;;;;;;15.23;9.90;;;18.50;60.70;;;;;;6356136;22;20372;-81
2023/02/22 03:39:09;;;;;;;15.70;10.67;;;18.50;61.00;;;;;;6357642;22;20450;-81
2023/02/22 03:41:38;;;;;;;13.40;9.67;;;18.40;60.80;;;;;;6356583;22;20435;-80
2023/02/22 03:44:08;;;;;;;12.70;8.97;;;18.50;61.20;;;;;;6356629;22;20419;-81
2023/02/22 03:46:36;;;;;;;12.03;9.10;;;18.50;61.10;;;;;;6356809;22;20408;-81
2023/02/22 03:49:08;;;;;;;15.40;10.20;;;18.50;61.00;;;;;;6357111;22;20407;-81
2023/02/22 03:51:36;;;;;;;13.43;8.77;;;18.50;61.10;;;;;;6357172;22;20407;-81
2023/02/22 03:54:04;;;;;;;15.37;9.83;;;18.50;61.00;;;;;;6355499;22;20429;-81
2023/02/22 03:56:35;;;;;;;10.63;8.90;;;18.50;60.90;;;;;;6357489;22;20503;-81
2023/02/22 03:59:03;;;;;;;11.77;8.53;;;18.50;61.00;;;;;;6355706;22;20498;-81
2023/02/22 04:01:32;;;;;;;11.93;9.03;;;18.50;61.00;;;;;;6356590;22;20407;-82
2023/02/22 04:04:00;;;;;;;11.93;8.43;;;18.40;60.90;;;;;;6357737;22;20459;-81
2023/02/22 04:06:29;;;;;;;14.43;10.37;;;18.50;61.20;;;;;;6361219;22;20379;-81
2023/02/22 04:08:57;;;;;;;12.90;9.70;;;18.50;61.90;;;;;;6352220;22;20424;-79
2023/02/22 04:11:25;;;;;;;12.43;9.07;;;18.50;61.20;;;;;;6348542;22;20427;-79
2023/02/22 04:13:54;;;;;;;12.43;8.60;;;18.40;61.10;;;;;;6348234;22;20449;-79
2023/02/22 04:16:22;;;;;;;12.40;9.00;;;18.40;61.10;;;;;;6349863;22;20403;-80
2023/02/22 04:18:51;;;;;;;11.13;8.50;;;18.40;61.40;;;;;;6348655;22;20470;-80
2023/02/22 04:21:19;;;;;;;13.97;9.63;;;18.40;61.30;;;;;;6350125;22;20410;-80
2023/02/22 04:23:49;;;;;;;12.20;9.03;;;18.40;61.20;;;;;;6349049;22;20427;-79
2023/02/22 04:26:17;;;;;;;14.30;9.90;;;18.40;61.20;;;;;;6349435;22;20454;-80
2023/02/22 04:28:50;;;;;;;13.33;9.37;;;18.40;61.40;;;;;;6349481;22;20479;-79
2023/02/22 04:31:23;;;;;;;12.50;8.90;;;18.40;61.40;;;;;;6349662;22;20403;-80
2023/02/22 04:33:51;;;;;;;11.53;8.60;;;18.40;61.50;;;;;;6352234;22;20430;-81
2023/02/22 04:36:20;;;;;;;11.43;8.60;;;18.40;61.40;;;;;;6349032;22;20410;-81
2023/02/22 04:38:49;;;;;;;12.23;9.10;;;18.40;61.40;;;;;;6356091;22;20410;-80
2023/02/22 04:41:18;;;;;;;11.03;8.70;;;18.40;61.50;;;;;;6352882;22;20510;-79
2023/02/22 04:43:46;;;;;;;10.50;8.13;;;18.40;61.50;;;;;;6354515;22;20465;-80
2023/02/22 04:46:14;;;;;;;12.67;8.60;;;18.40;61.20;;;;;;6348923;22;20410;-79
2023/02/22 04:48:42;;;;;;;10.00;8.00;;;18.40;61.50;;;;;;6350635;22;20445;-80
2023/02/22 04:51:10;;;;;;;11.17;8.23;;;18.40;61.60;;;;;;6355866;22;20406;-81
2023/02/22 04:53:38;;;;;;;13.03;9.00;;;18.40;61.50;;;;;;6356252;22;20450;-81
2023/02/22 04:56:08;;;;;;;11.77;9.10;;;18.40;61.40;;;;;;6351450;22;20447;-80
2023/02/22 04:58:35;;;;;;;11.60;8.83;;;18.40;61.60;;;;;;6346559;22;20425;-81
2023/02/22 05:01:04;;;;;;;11.10;8.77;;;18.40;61.70;;;;;;6345283;22;20427;-79
2023/02/22 05:03:32;;;;;;;12.13;8.07;;;18.40;61.50;;;;;;6345164;22;20411;-80
2023/02/22 05:06:00;;;;;;;10.63;8.03;;;18.40;61.70;;;;;;6345698;22;20403;-80
2023/02/22 05:08:28;;;;;;;11.90;8.30;;;18.40;61.50;;;;;;6353819;22;20471;-80
2023/02/22 05:10:56;;;;;;;11.33;8.03;;;18.40;61.70;;;;;;6353022;22;20457;-80
2023/02/22 05:13:25;;;;;;;9.53;7.43;;;18.40;61.70;;;;;;6351693;22;20427;-80
2023/02/22 05:15:54;;;;;;;10.00;7.70;;;18.40;61.70;;;;;;6346314;22;20407;-80
2023/02/22 05:18:22;;;;;;;10.30;7.90;;;18.40;61.60;;;;;;6347794;22;20429;-80
2023/02/22 05:20:50;;;;;;;11.03;8.13;;;18.40;61.70;;;;;;6345616;22;20519;-79
2023/02/22 05:23:18;;;;;;;10.30;8.07;;;18.40;61.70;;;;;;6349748;22;20423;-81
2023/02/22 05:25:47;;;;;;;11.00;8.60;;;18.40;61.60;;;;;;6350664;22;20445;-83
2023/02/22 05:28:15;;;;;;;10.90;8.17;;;18.30;61.60;;;;;;6355074;22;20423;-81
2023/02/22 05:30:45;;;;;;;9.90;7.43;;;18.40;61.90;;;;;;6355344;22;20431;-81
2023/02/22 05:33:13;;;;;;;10.07;7.57;;;18.40;61.70;;;;;;6355692;22;20454;-80
2023/02/22 05:35:41;;;;;;;9.43;7.40;;;18.30;61.70;;;;;;6349978;22;20404;-80
2023/02/22 05:38:10;;;;;;;11.17;8.00;;;18.30;61.80;;;;;;6351565;22;20495;-80
2023/02/22 05:40:38;;;;;;;10.13;7.33;;;18.30;61.70;;;;;;6345958;22;20433;-79
2023/02/22 05:43:06;;;;;;;8.70;7.17;;;18.30;61.90;;;;;;6345206;22;20430;-80
2023/02/22 05:45:35;;;;;;;11.03;7.87;;;18.30;61.80;;;;;;6346093;22;20410;-80
2023/02/22 05:48:04;;;;;;;10.03;7.90;;;18.30;61.70;;;;;;6347334;22;20435;-80
2023/02/22 05:50:33;;;;;;;8.03;6.80;;;18.30;61.80;;;;;;6344976;22;20406;-79
2023/02/22 05:53:01;;;;;;;11.60;7.97;;;18.40;61.80;;;;;;6349235;22;20454;-80
2023/02/22 05:55:29;;;;;;;9.80;7.57;;;18.30;61.70;;;;;;6345292;22;20427;-79
2023/02/22 05:57:57;;;;;;;11.33;7.87;;;18.30;61.90;;;;;;6348282;22;20403;-81
2023/02/22 06:00:27;;;;;;;9.03;7.17;;;18.40;61.90;;;;;;6349412;22;20947;-80
2023/02/22 06:02:56;;;;;;;11.90;7.60;;;18.30;61.90;;;;;;6345654;22;20431;-79
2023/02/22 06:05:26;;;;;;;10.20;7.43;;;18.30;61.80;;;;;;6349254;22;20483;-83
2023/02/22 06:07:54;;;;;;;9.77;7.20;;;18.30;62.10;;;;;;6349726;22;20403;-81
2023/02/22 06:10:22;;;;;;;10.10;7.63;;;18.30;62.00;;;;;;6346848;22;20419;-79
2023/02/22 06:12:51;;;;;;;10.20;7.87;;;18.30;62.00;;;;;;6342771;22;20510;-80
2023/02/22 06:15:19;;;;;;;7.77;6.73;;;18.30;62.10;;;;;;6343354;22;20414;-80
2023/02/22 06:17:47;;;;;;;10.53;7.47;;;18.30;62.20;;;;;;6343585;22;20406;-79
2023/02/22 06:20:16;;;;;;;9.43;7.40;;;18.30;62.00;;;;;;6345104;22;20433;-79
2023/02/22 06:22:47;;;;;;;9.83;7.03;;;18.30;62.10;;;;;;6344477;22;20495;-79
2023/02/22 06:25:15;;;;;;;11.07;7.40;;;18.30;62.10;;;;;;6345880;22;20422;-81
2023/02/22 06:27:43;;;;;;;9.40;7.47;;;18.30;62.10;;;;;;6342446;22;20433;-80
2023/02/22 06:30:12;;;;;;;10.50;7.60;;;18.30;62.10;;;;;;6342533;22;20404;-80
2023/02/22 06:32:40;;;;;;;10.67;7.80;;;18.30;62.20;;;;;;6340333;22;20456;-79
2023/02/22 06:35:08;;;;;;;9.30;7.40;;;18.30;62.00;;;;;;6339221;22;20929;-79
2023/02/22 06:37:37;;;;;;;10.00;7.40;;;18.30;62.20;;;;;;6340163;22;20410;-80
2023/02/22 06:40:07;;;;;;;9.47;7.30;;;18.30;62.10;;;;;;6341932;22;20487;-80
2023/02/22 06:42:35;;;;;;;9.40;7.47;;;18.30;62.20;;;;;;6338762;22;20446;-78
2023/02/22 06:45:04;;;;;;;7.63;6.63;;;18.30;62.20;;;;;;6338382;22;20407;-79
2023/02/22 06:47:37;;;;;;;8.13;6.63;;;18.30;62.20;;;;;;6339175;22;20472;-80
2023/02/22 06:50:06;;;;;;;8.23;6.50;;;18.30;62.20;;;;;;6340466;22;20430;-78
2023/02/22 06:52:34;;;;;;;8.30;6.50;;;18.30;62.10;;;;;;6340171;22;20495;-80
2023/02/22 06:55:03;;;;;;;8.57;6.77;;;18.30;62.30;;;;;;6341229;22;20410;-80
2023/02/22 06:57:32;;;;;;;8.50;7.30;;;18.30;62.20;;;;;;6340275;22;20431;-79
2023/02/22 07:00:00;;;;;;;9.30;6.90;;;18.30;62.20;;;;;;6340816;22;20426;-81
2023/02/22 07:02:28;;;;;;;8.37;6.73;;;18.30;62.10;;;;;;6341397;22;20431;-80
2023/02/22 07:04:56;;;;;;;7.77;6.87;;;18.30;62.10;;;;;;6339515;22;20403;-80
2023/02/22 07:07:25;;;;;;;9.30;7.13;;;18.30;62.30;;;;;;6341088;22;20403;-80
2023/02/22 07:09:53;;;;;;;9.70;6.97;;;18.30;62.20;;;;;;6341713;22;20411;-80
2023/02/22 07:12:21;;;;;;;10.40;6.90;;;18.30;62.20;;;;;;6342234;22;20451;-79
2023/02/22 07:14:50;;;;;;;6.97;6.17;;;18.30;62.30;;;;;;6342455;22;20391;-79
2023/02/22 07:17:19;;;;;;;8.57;6.97;;;18.30;62.20;;;;;;6344973;22;20428;-80
2023/02/22 07:19:47;;;;;;;7.27;6.47;;;18.30;62.20;;;;;;6344776;22;20403;-80
2023/02/22 07:22:16;;;;;;;7.50;6.43;;;18.30;62.30;;;;;;6345106;22;20463;-81
2023/02/22 07:24:44;;;;;;;6.80;6.10;;;18.30;62.10;;;;;;6344782;22;20423;-80
2023/02/22 07:27:12;;;;;;;7.60;6.80;;;18.30;62.20;;;;;;6344774;22;20428;-80
2023/02/22 07:29:42;;;;;;;9.00;7.27;;;18.30;62.00;;;;;;6344380;22;20431;-79
2023/02/22 07:32:12;;;;;;;7.67;6.80;;;18.30;62.20;;;;;;6342854;22;20483;-80
2023/02/22 07:34:41;;;;;;;8.00;6.50;;;18.30;62.10;;;;;;6340266;22;20430;-78
2023/02/22 07:37:10;;;;;;;7.10;6.37;;;18.30;62.10;;;;;;6340299;22;20412;-78
2023/02/22 07:39:54;;;;;;;10.30;7.13;;;18.30;61.90;;;;;;6338067;22;20404;-79
2023/02/22 07:42:22;;;;;;;8.57;6.40;;;18.30;62.10;;;;;;6338145;22;20446;-79
2023/02/22 07:44:50;;;;;;;7.10;6.37;;;18.30;62.20;;;;;;6337166;22;20445;-79
2023/02/22 07:47:19;;;;;;;7.83;6.57;;;18.30;62.30;;;;;;6339656;22;20470;-80
2023/02/22 07:49:48;;;;;;;7.33;6.13;;;18.40;62.30;;;;;;6337257;22;20404;-81
2023/02/22 07:52:16;;;;;;;8.93;6.80;;;18.40;62.30;;;;;;6337379;22;20400;-79
2023/02/22 07:54:46;;;;;;;7.73;6.40;;;18.40;62.20;;;;;;6336174;22;20423;-77
2023/02/22 07:57:15;;;;;;;6.20;5.60;;;18.40;62.10;;;;;;6335005;22;20427;-78
2023/02/22 07:59:52;;;;;;;8.23;6.63;;;18.40;62.20;;;;;;6338131;22;20403;-80
2023/02/22 08:02:22;;;;;;;9.63;6.90;;;18.40;62.20;;;;;;6335545;22;20429;-79
2023/02/22 08:04:50;;;;;;;8.17;6.73;;;18.50;62.00;;;;;;6336345;22;20650;-79
2023/02/22 08:07:18;;;;;;;10.07;7.20;;;18.50;62.00;;;;;;6336073;22;20404;-79
2023/02/22 08:09:47;;;;;;;7.60;6.20;;;18.50;61.90;;;;;;6336538;22;20403;-79
2023/02/22 08:12:15;;;;;;;7.83;5.97;;;18.50;62.10;;;;;;6337212;22;20511;-79
2023/02/22 08:14:43;;;;;;;9.00;6.53;;;18.60;62.20;;;;;;6337983;22;20433;-79
2023/02/22 08:17:11;;;;;;;7.50;6.33;;;18.60;62.00;;;;;;6337223;22;20409;-80
2023/02/22 08:19:41;;;;;;;8.07;6.63;;;18.60;62.00;;;;;;6337851;22;20461;-78
2023/02/22 08:22:09;;;;;;;8.30;6.87;;;18.60;61.90;;;;;;6337669;22;20431;-78
2023/02/22 08:24:38;;;;;;;9.07;6.97;;;18.70;61.90;;;;;;6337467;22;20514;-79
2023/02/22 08:27:07;;;;;;;7.70;6.27;;;18.70;62.00;;;;;;6337151;22;20813;-78
2023/02/22 08:29:36;;;;;;;8.10;6.30;;;18.80;62.10;;;;;;6337737;22;20395;-78
2023/02/22 08:32:04;;;;;;;7.23;5.93;;;18.80;61.80;;;;;;6337439;22;20392;-78
2023/02/22 08:34:32;;;;;;;9.03;6.90;;;18.80;61.80;;;;;;6337550;22;20416;-78
2023/02/22 08:37:01;;;;;;;7.93;6.63;;;18.90;61.60;;;;;;6337188;22;20380;-78
2023/02/22 08:39:30;;;;;;;6.87;6.13;;;18.90;61.50;;;;;;6337285;22;20391;-77
2023/02/22 08:41:58;;;;;;;7.83;6.63;;;18.90;61.70;;;;;;6338289;22;20436;-77
2023/02/22 08:44:26;;;;;;;8.60;6.53;;;18.90;61.50;;;;;;6346591;22;20439;-79
2023/02/22 08:46:55;;;;;;;8.07;6.67;;;18.90;61.60;;;;;;6363480;22;20431;-84
2023/02/22 08:49:23;;;;;;;7.73;6.60;;;18.90;61.50;;;;;;6361872;22;20405;-79
2023/02/22 08:51:51;;;;;;;8.57;6.47;;;18.90;61.60;;;;;;6362567;22;20395;-81
2023/02/22 08:54:21;;;;;;;9.20;7.00;;;19.00;61.50;;;;;;6363890;22;20446;-80
2023/02/22 08:56:49;;;;;;;8.30;6.37;;;19.00;61.50;;;;;;6366112;22;20491;-80
2023/02/22 08:59:18;;;;;;;10.20;6.40;;;19.00;61.40;;;;;;6366781;22;20402;-81
2023/02/22 09:01:46;;;;;;;8.30;6.80;;;19.00;61.30;;;;;;6366654;22;20430;-81
2023/02/22 09:04:14;;;;;;;8.07;7.00;;;19.00;61.20;;;;;;6365650;22;20370;-80
2023/02/22 09:06:43;;;;;;;7.43;6.60;;;19.10;61.30;;;;;;6363280;22;20459;-81
2023/02/22 09:09:10;;;;;;;8.40;7.13;;;19.10;61.40;;;;;;6348050;22;20420;-80
2023/02/22 09:11:40;;;;;;;7.70;6.53;;;19.10;61.40;;;;;;6344111;22;20415;-80
2023/02/22 09:14:08;;;;;;;7.33;6.10;;;19.10;61.40;;;;;;6339372;22;20496;-80
2023/02/22 09:16:37;;;;;;;9.20;7.03;;;19.10;61.20;;;;;;6339567;22;20409;-80
2023/02/22 09:19:06;;;;;;;8.40;6.57;;;19.10;61.40;;;;;;6339188;22;20429;-80
2023/02/22 09:21:34;;;;;;;7.80;6.83;;;19.10;61.40;;;;;;6339687;22;20498;-80
2023/02/22 09:24:07;;;;;;;7.70;6.10;;;19.10;61.40;;;;;;6339952;22;20404;-80
2023/02/22 09:26:38;;;;;;;8.10;6.77;;;19.20;61.40;;;;;;6340554;22;20427;-80
2023/02/22 09:29:09;;;;;;;10.53;7.07;;;19.20;61.50;;;;;;6339622;22;20472;-80
2023/02/22 09:31:38;;;;;;;9.60;7.00;;;19.20;61.50;;;;;;6338883;22;20453;-80
2023/02/22 09:34:12;;;;;;;10.07;7.10;;;19.20;61.20;;;;;;6340453;22;20911;-80
2023/02/22 09:36:40;;;;;;;10.17;7.80;;;19.30;61.30;;;;;;6337745;22;20395;-78
2023/02/22 09:39:10;;;;;;;10.70;7.87;;;19.30;61.30;;;;;;6336446;22;20414;-78
2023/02/22 09:41:40;;;;;;;9.27;7.00;;;19.40;61.40;;;;;;6338009;22;20479;-79
2023/02/22 09:44:16;;;;;;;10.57;7.20;;;19.40;61.20;;;;;;6339677;22;20429;-79
2023/02/22 09:46:44;;;;;;;10.80;8.03;;;19.50;61.10;;;;;;6338813;22;20376;-80
2023/02/22 09:49:19;;;;;;;10.17;7.67;;;19.50;60.90;;;;;;6339308;22;20407;-79
2023/02/22 09:51:49;;;;;;;11.17;8.00;;;19.60;60.80;;;;;;6339125;22;20411;-79
2023/02/22 09:54:21;;;;;;;8.80;7.50;;;19.60;60.80;;;;;;6339203;22;20474;-80
2023/02/22 09:56:49;;;;;;;11.80;7.90;;;19.70;60.50;;;;;;6340229;22;20419;-79
2023/02/22 09:59:22;;;;;;;10.40;7.97;;;19.70;60.60;;;;;;6340347;22;20450;-80
2023/02/22 10:01:54;;;;;;;12.17;8.40;;;19.80;60.50;;;;;;6339323;22;20856;-80
2023/02/22 10:04:23;;;;;;;13.73;8.60;;;19.90;60.40;;;;;;6338532;22;20424;-80
2023/02/22 10:07:04;;;;;;;13.00;8.20;;;20.10;60.40;;;;;;6339049;22;20403;-80
2023/02/22 10:09:36;;;;;;;11.63;8.13;;;20.30;60.30;;;;;;6339309;22;20403;-80
2023/02/22 10:12:07;;;;;;;12.53;8.83;;;20.40;59.90;;;;;;6339770;22;20506;-80
2023/02/22 10:14:51;;;;;;;10.27;7.90;;;20.50;59.80;;;;;;6339044;22;20498;-80
2023/02/22 10:17:26;;;;;;;10.00;7.47;;;20.60;59.70;;;;;;6338262;22;20884;-80
2023/02/22 10:20:12;;;;;;;13.17;8.90;;;20.70;59.70;;;;;;6339691;22;20383;-80
2023/02/22 10:22:44;;;;;;;11.60;8.33;;;20.70;59.50;;;;;;6342073;22;20445;-78
2023/02/22 10:25:13;;;;;;;13.90;9.40;;;20.90;59.60;;;;;;6340736;22;20400;-79
2023/02/22 10:27:42;;;;;;;11.17;8.47;;;21.10;59.60;;;;;;6340613;22;20449;-81
2023/02/22 10:30:19;;;;;;;12.57;8.93;;;21.20;59.60;;;;;;6340879;22;20385;-80
2023/02/22 10:32:56;;;;;;;13.27;8.80;;;21.30;59.20;;;;;;6341147;22;20411;-80
2023/02/22 10:35:26;;;;;;;13.03;9.53;;;21.50;59.40;;;;;;6339385;22;20391;-79
2023/02/22 10:37:56;;;;;;;13.67;9.60;;;21.70;59.30;;;;;;6338755;22;20399;-80
2023/02/22 10:40:30;;;;;;;13.90;10.37;;;21.90;59.30;;;;;;6338598;22;20412;-80
2023/02/22 10:43:02;;;;;;;14.40;10.30;;;22.10;59.30;;;;;;6339184;22;20509;-80
2023/02/22 10:45:32;;;;;;;15.73;10.03;;;22.30;59.10;;;;;;6338785;22;20476;-81
2023/02/22 10:48:01;;;;;;;11.90;9.70;;;22.50;59.10;;;;;;6341000;22;20431;-80
2023/02/22 10:50:30;;;;;;;13.40;10.47;;;22.70;58.90;;;;;;6339467;22;20385;-79
2023/02/22 10:52:58;;;;;;;11.17;9.90;;;22.90;58.90;;;;;;6337101;22;20537;-78
2023/02/22 10:55:27;;;;;;;11.27;9.70;;;23.20;58.80;;;;;;6336721;22;20908;-78
2023/02/22 10:58:00;;;;;;;13.70;11.30;;;23.40;58.70;;;;;;6337650;22;20409;-80
2023/02/22 11:00:31;;;;;;;14.23;11.30;;;23.50;58.40;;;;;;6337481;22;20396;-78
2023/02/22 11:03:00;;;;;;;15.40;12.07;;;23.70;58.20;;;;;;6337298;22;20419;-79
2023/02/22 11:05:30;;;;;;;14.43;11.70;;;23.80;58.40;;;;;;6337449;22;20403;-79
2023/02/22 11:08:15;;;;;;;13.47;11.07;;;23.90;58.00;;;;;;6337189;22;20370;-78
2023/02/22 11:10:44;;;;;;;15.23;12.17;;;24.00;57.80;;;;;;6336526;22;20434;-78
2023/02/22 11:13:18;;;;;;;13.60;11.33;;;24.10;57.80;;;;;;6338151;22;20464;-79
2023/02/22 11:15:49;;;;;;;13.63;11.27;;;24.20;57.80;;;;;;6338285;22;20468;-80
2023/02/22 11:18:22;;;;;;;12.80;10.70;;;24.30;57.60;;;;;;6338873;22;20410;-79
2023/02/22 11:20:59;;;;;;;13.83;11.33;;;24.40;57.60;;;;;;6338730;22;20378;-79
2023/02/22 11:23:27;;;;;;;14.30;11.50;;;24.50;57.40;;;;;;6336754;22;20506;-78
2023/02/22 11:26:06;;;;;;;13.27;11.57;;;24.70;57.30;;;;;;6337880;22;20416;-79
2023/02/22 11:28:34;;;;;;;13.63;11.27;;;24.80;57.10;;;;;;6337435;22;20447;-78
2023/02/22 11:31:18;;;;;;;11.93;10.23;;;24.90;56.90;;;;;;6338126;22;20458;-80
2023/02/22 11:34:03;;;;;;;12.53;11.20;;;25.00;56.50;;;;;;6337808;22;20435;-79
2023/02/22 11:36:41;;;;;;;12.23;10.93;;;25.20;56.30;;;;;;6338540;22;20382;-78
2023/02/22 11:39:24;;;;;;;12.67;11.00;;;25.20;55.70;;;;;;6338905;22;20450;-79
2023/02/22 11:41:56;;;;;;;11.20;9.80;;;25.30;55.50;;;;;;6340039;22;20405;-79
2023/02/22 11:44:27;;;;;;;11.77;10.37;;;25.50;55.40;;;;;;6338942;22;20434;-80
2023/02/22 11:47:00;;;;;;;11.57;10.20;;;25.50;55.30;;;;;;6338125;22;20431;-79
2023/02/22 11:49:32;;;;;;;12.43;10.90;;;25.60;55.00;;;;;;6340820;22;20396;-79
2023/02/22 11:52:23;;;;;;;10.97;9.80;;;25.60;54.80;;;;;;6342141;22;20462;-80
2023/02/22 11:55:01;;;;;;;12.23;10.23;;;25.50;54.60;;;;;;6342093;22;20390;-79
2023/02/22 11:57:40;;;;;;;13.37;10.40;;;25.50;54.60;;;;;;6339369;22;20405;-80
2023/02/22 12:00:15;;;;;;;14.03;11.80;;;25.40;54.60;;;;;;6341337;22;20409;-80
2023/02/22 12:03:04;;;;;;;13.00;11.13;;;25.30;54.80;;;;;;6341675;22;20460;-79
2023/02/22 12:06:05;;;;;;;12.40;10.77;;;25.10;54.80;;;;;;6341547;22;20377;-80
2023/02/22 12:08:46;;;;;;;13.97;10.53;;;25.00;55.10;;;;;;6342481;22;20378;-79
2023/02/22 12:11:22;;;;;;;13.03;10.37;;;24.80;55.20;;;;;;6340505;22;20922;-79
2023/02/22 12:13:59;;;;;;;11.13;9.83;;;24.80;55.50;;;;;;6339736;22;20410;-79
2023/02/22 12:16:31;;;;;;;12.57;10.50;;;24.80;55.50;;;;;;6340303;22;20370;-79
2023/02/22 12:19:10;;;;;;;10.60;9.53;;;24.70;55.60;;;;;;6341179;22;20358;-80
2023/02/22 12:21:40;;;;;;;12.50;10.00;;;24.70;55.60;;;;;;6338822;22;20362;-78
2023/02/22 12:24:13;;;;;;;15.33;11.43;;;24.70;55.70;;;;;;6339089;22;20797;-79
2023/02/22 12:26:42;;;;;;;10.97;9.30;;;24.80;55.60;;;;;;6338433;22;20535;-78
2023/02/22 12:29:13;;;;;;;10.40;9.37;;;25.00;55.50;;;;;;6338935;22;20379;-79
2023/02/22 12:31:44;;;;;;;12.20;9.60;;;25.00;55.30;;;;;;6339525;22;20358;-78
2023/02/22 12:34:18;;;;;;;10.97;9.53;;;25.10;55.10;;;;;;6338753;22;20410;-79
2023/02/22 12:36:48;;;;;;;12.20;10.17;;;25.20;55.00;;;;;;6338765;22;20456;-78
2023/02/22 12:39:25;;;;;;;11.37;9.37;;;25.30;54.80;;;;;;6339685;22;20367;-80
2023/02/22 12:41:55;;;;;;;10.33;9.10;;;25.40;54.60;;;;;;6340818;22;20484;-81
2023/02/22 12:44:25;;;;;;;12.03;9.73;;;25.50;54.40;;;;;;6340553;22;20400;-81
2023/02/22 12:46:55;;;;;;;11.83;9.27;;;25.50;54.20;;;;;;6340588;22;20413;-80
2023/02/22 12:49:28;;;;;;;10.57;9.40;;;25.40;54.00;;;;;;6338009;22;20357;-79
2023/02/22 12:51:58;;;;;;;10.30;8.20;;;25.40;53.80;;;;;;6338797;22;20402;-79
2023/02/22 12:54:37;;;;;;;9.70;8.70;;;25.30;53.80;;;;;;6338916;22;20405;-79